Wenasoga, Mississippi
Current Conditions -  °F | °C
As of 4:35 AM on Thursday 27 Nov 2014 (Local Time) from KCRX Reporting Station
Overcast Overcast  
Wind Chill: 33°   Ceiling: 3600
Heat Index: 39°   Visibility: NA
Dew Point: 32°   Wind: 9mph
Humidity: 75%   Direction: 320°NW
Pressure: 30.28"   Gusts: NA
Location:  34.9238°N, 88.6234°W
Report Text: KCRX 271035Z AUTO 32008KT BKN036 OVC043 04/00 A3028 RMK AO2
Loading
Personal Weather Stations






























Interactive Weather Map New forecast layout! Learn more

10-Day Weather Forecast

Advertisements
Track Severe Weather on mobile